createdAt,value
2018-07-11T00:02:05.828Z,19.98
2018-07-11T00:04:34.981Z,21.50
2018-07-11T00:07:05.229Z,17.73
2018-07-11T00:09:35.587Z,20.67
2018-07-11T00:12:06.167Z,20.90
2018-07-11T00:14:37.137Z,20.85
2018-07-11T00:17:10.786Z,22.30
2018-07-11T00:19:40.436Z,21.13
2018-07-11T00:22:10.224Z,24.10
2018-07-11T00:24:39.794Z,17.40
2018-07-11T00:27:10.457Z,19.10
2018-07-11T00:29:40.280Z,22.40
2018-07-11T00:32:09.543Z,17.83
2018-07-11T00:34:40.095Z,19.70
2018-07-11T00:37:10.781Z,19.82
2018-07-11T00:39:40.126Z,20.53
2018-07-11T00:42:10.895Z,16.90
2018-07-11T00:44:41.833Z,17.23
2018-07-11T00:47:12.233Z,16.50
2018-07-11T00:49:42.109Z,19.30
2018-07-11T00:52:13.532Z,15.60
2018-07-11T00:54:43.570Z,23.00
2018-07-11T00:57:13.675Z,19.23
2018-07-11T00:59:43.958Z,19.53
2018-07-11T01:02:14.313Z,17.70
2018-07-11T01:04:43.537Z,16.07
2018-07-11T01:07:12.864Z,17.27
2018-07-11T01:09:50.462Z,17.73
2018-07-11T01:12:21.648Z,17.93
2018-07-11T01:14:50.900Z,18.53
2018-07-11T01:17:26.627Z,16.53
2018-07-11T01:19:57.659Z,16.17
2018-07-11T01:22:28.364Z,17.70
2018-07-11T01:24:58.600Z,17.90
2018-07-11T01:27:29.208Z,17.40
2018-07-11T01:29:58.914Z,17.77
2018-07-11T01:32:29.442Z,19.30
2018-07-11T01:34:59.503Z,20.80
2018-07-11T01:37:29.862Z,24.03
2018-07-11T01:40:00.210Z,21.40
2018-07-11T01:42:30.741Z,16.03
2018-07-11T01:45:01.572Z,18.60
2018-07-11T01:47:32.255Z,20.30
2018-07-11T01:50:01.466Z,19.17
2018-07-11T01:52:42.088Z,18.20
2018-07-11T01:55:12.839Z,22.60
2018-07-11T01:57:43.071Z,17.20
2018-07-11T02:00:14.085Z,19.10
2018-07-11T02:02:45.127Z,20.93
2018-07-11T02:05:15.545Z,22.10
2018-07-11T02:07:46.059Z,24.00
2018-07-11T02:10:16.752Z,20.03
2018-07-11T02:12:45.923Z,22.53
2018-07-11T02:15:15.439Z,18.13
2018-07-11T02:17:45.785Z,20.77
2018-07-11T02:20:17.387Z,17.13
2018-07-11T02:22:50.733Z,19.10
2018-07-11T02:25:22.184Z,16.50
2018-07-11T02:27:53.228Z,18.50
2018-07-11T02:30:23.638Z,20.03
2018-07-11T02:32:54.356Z,23.60
2018-07-11T02:35:23.759Z,17.87
2018-07-11T02:37:52.861Z,22.80
2018-07-11T02:40:23.265Z,19.67
2018-07-11T02:42:52.689Z,25.73
2018-07-11T02:45:21.745Z,19.97
2018-07-11T02:47:52.186Z,19.80
2018-07-11T02:50:22.069Z,17.27
2018-07-11T02:52:51.558Z,23.47
2018-07-11T02:55:22.709Z,19.77
2018-07-11T02:57:53.138Z,19.73
2018-07-11T03:00:22.889Z,19.17
2018-07-11T03:02:52.753Z,22.30
2018-07-11T03:05:22.937Z,24.73
2018-07-11T03:07:53.895Z,20.20
2018-07-11T03:10:23.377Z,21.47
2018-07-11T03:12:53.805Z,21.33
2018-07-11T03:15:24.086Z,21.17
2018-07-11T03:17:53.712Z,19.70
2018-07-11T03:20:23.986Z,19.53
2018-07-11T03:22:54.495Z,21.77
2018-07-11T03:25:23.720Z,16.50
2018-07-11T03:27:53.877Z,17.83
2018-07-11T03:30:23.133Z,18.30
2018-07-11T03:32:52.974Z,19.43
2018-07-11T03:35:22.893Z,19.70
2018-07-11T03:37:53.522Z,21.80
2018-07-11T03:40:24.219Z,18.20
2018-07-11T03:42:55.126Z,19.27
2018-07-11T03:45:25.294Z,21.07
2018-07-11T03:47:56.395Z,18.97
2018-07-11T03:50:27.247Z,17.02
2018-07-11T03:52:57.785Z,17.63
2018-07-11T03:55:27.878Z,18.87
2018-07-11T03:57:58.698Z,17.10
2018-07-11T04:00:27.843Z,21.07
2018-07-11T04:02:57.375Z,23.35
2018-07-11T04:05:26.532Z,16.77
2018-07-11T04:07:55.755Z,18.27
2018-07-11T04:10:24.814Z,20.23
2018-07-11T04:13:27.796Z,20.47
2018-07-11T04:15:58.375Z,17.00
2018-07-11T04:18:30.470Z,19.13
2018-07-11T04:21:03.049Z,15.00
2018-07-11T04:23:32.111Z,15.03
2018-07-11T04:26:02.975Z,20.90
2018-07-11T04:28:33.383Z,16.40
2018-07-11T04:31:02.507Z,13.72
2018-07-11T04:33:32.986Z,17.00
2018-07-11T04:36:03.896Z,18.30
2018-07-11T04:38:33.049Z,13.90
2018-07-11T04:41:02.172Z,15.20
2018-07-11T04:43:32.522Z,17.10
2018-07-11T04:46:01.950Z,15.00
2018-07-11T04:48:31.476Z,17.48
2018-07-11T04:51:02.938Z,16.37
2018-07-11T04:53:32.875Z,20.07
2018-07-11T04:56:05.516Z,17.57
2018-07-11T04:58:34.840Z,17.62
2018-07-11T05:01:04.520Z,22.33
2018-07-11T05:03:33.873Z,19.42
2018-07-11T05:06:04.617Z,21.67
2018-07-11T05:08:33.816Z,17.82
2018-07-11T05:11:04.803Z,19.63
2018-07-11T05:13:35.048Z,19.87
2018-07-11T05:16:05.933Z,16.13
2018-07-11T05:18:35.822Z,15.60
2018-07-11T05:21:06.422Z,13.48
2018-07-11T05:23:37.452Z,13.38
2018-07-11T05:26:08.101Z,15.40
2018-07-11T05:28:39.640Z,13.40
2018-07-11T05:31:10.285Z,15.35
2018-07-11T05:33:41.308Z,14.45
2018-07-11T05:36:12.268Z,12.37
2018-07-11T05:38:42.905Z,13.70
2018-07-11T05:41:12.032Z,12.70
2018-07-11T05:43:42.645Z,12.30
2018-07-11T05:46:13.189Z,13.23
2018-07-11T05:48:43.775Z,11.60
2018-07-11T05:51:14.322Z,10.23
2018-07-11T05:53:44.896Z,9.60
2018-07-11T05:56:15.248Z,9.10
2018-07-11T05:58:45.291Z,9.47
2018-07-11T06:01:16.217Z,7.63
2018-07-11T06:03:46.284Z,8.83
2018-07-11T06:06:15.592Z,6.73
2018-07-11T06:08:44.784Z,7.00
2018-07-11T06:11:24.267Z,9.93
2018-07-11T06:13:54.887Z,8.63
2018-07-11T06:16:24.246Z,7.43
2018-07-11T06:18:54.411Z,5.47
2018-07-11T06:21:26.684Z,9.23
2018-07-11T06:23:56.206Z,5.17
2018-07-11T06:26:26.323Z,7.67
2018-07-11T06:28:56.965Z,13.20
2018-07-11T06:31:27.002Z,5.93
2018-07-11T06:33:57.519Z,5.77
2018-07-11T06:36:26.911Z,4.37
2018-07-11T06:38:56.108Z,6.20
2018-07-11T06:41:26.409Z,7.27
2018-07-11T06:43:55.483Z,5.07
2018-07-11T06:46:24.990Z,7.78
2018-07-11T06:48:55.115Z,11.33
2018-07-11T06:51:26.351Z,4.90
2018-07-11T06:53:58.801Z,5.70
2018-07-11T06:56:28.516Z,6.03
2018-07-11T06:58:59.182Z,6.35
2018-07-11T07:01:28.862Z,6.80
2018-07-11T07:03:58.120Z,6.27
2018-07-11T07:06:28.173Z,7.03
2018-07-11T07:08:59.282Z,4.65
2018-07-11T07:11:28.290Z,11.83
2018-07-11T07:13:58.865Z,8.38
2018-07-11T07:16:28.791Z,8.03
2018-07-11T07:19:00.566Z,10.17
2018-07-11T07:21:31.289Z,7.00
2018-07-11T07:24:00.338Z,5.05
2018-07-11T07:26:30.485Z,5.53
2018-07-11T07:29:00.996Z,4.57
2018-07-11T07:31:31.074Z,6.27
2018-07-11T07:34:00.155Z,10.30
2018-07-11T07:36:31.480Z,9.85
2018-07-11T07:39:03.104Z,5.67
2018-07-11T07:41:33.903Z,4.07
2018-07-11T07:44:03.811Z,5.83
2018-07-11T07:46:35.264Z,4.58
2018-07-11T07:49:05.856Z,5.72
2018-07-11T07:51:35.904Z,5.20
2018-07-11T07:54:06.221Z,5.25
2018-07-11T07:56:36.500Z,9.43
2018-07-11T07:59:06.788Z,6.07
2018-07-11T08:01:36.002Z,10.80
2018-07-11T08:04:06.824Z,7.75
2018-07-11T08:06:37.450Z,5.60
2018-07-11T08:09:08.117Z,4.08
2018-07-11T08:11:38.895Z,4.83
2018-07-11T08:14:09.259Z,6.53
2018-07-11T08:16:39.476Z,6.40
2018-07-11T08:19:09.940Z,6.07
2018-07-11T08:21:40.056Z,5.60
2018-07-11T08:24:20.854Z,5.45
2018-07-11T08:28:03.098Z,6.07
2018-07-11T08:31:50.884Z,4.17
2018-07-11T08:34:38.673Z,5.23
2018-07-11T08:39:21.831Z,5.00
2018-07-11T08:42:02.907Z,4.30
2018-07-11T08:46:45.674Z,4.70
2018-07-11T08:49:27.306Z,5.80
2018-07-11T08:54:10.170Z,5.13
2018-07-11T08:57:12.798Z,3.50
2018-07-11T08:59:53.700Z,7.40
2018-07-11T09:04:37.232Z,5.60
2018-07-11T09:07:18.428Z,4.07
2018-07-11T09:12:18.854Z,4.97
2018-07-11T09:16:00.231Z,4.03
2018-07-11T09:21:14.404Z,3.67
2018-07-11T09:24:58.055Z,6.40
2018-07-11T09:27:27.401Z,3.87
2018-07-11T09:29:57.810Z,4.60
2018-07-11T09:32:28.242Z,3.67
2018-07-11T09:34:58.599Z,8.20
2018-07-11T09:37:28.148Z,4.03
2018-07-11T09:39:58.437Z,9.30
2018-07-11T09:42:29.041Z,4.27
2018-07-11T09:44:59.885Z,4.40
2018-07-11T09:47:31.681Z,4.10
2018-07-11T09:50:02.164Z,4.12
2018-07-11T09:52:32.617Z,8.73
2018-07-11T09:55:02.812Z,5.63
2018-07-11T09:57:33.852Z,6.35
2018-07-11T10:00:04.559Z,7.45
2018-07-11T10:02:35.286Z,8.98
2018-07-11T10:05:04.882Z,7.03
2018-07-11T10:07:35.359Z,4.37
2018-07-11T10:10:05.864Z,4.72
2018-07-11T10:12:36.705Z,7.50
2018-07-11T10:15:07.011Z,6.33
2018-07-11T10:17:37.920Z,10.25
2018-07-11T10:20:08.650Z,6.85
2018-07-11T10:22:37.720Z,5.30
2018-07-11T10:25:08.788Z,6.23
2018-07-11T10:27:37.872Z,5.00
2018-07-11T10:30:08.478Z,5.40
2018-07-11T10:32:39.193Z,4.67
2018-07-11T10:35:08.909Z,9.03
2018-07-11T10:37:38.145Z,5.47
2018-07-11T10:40:08.474Z,6.33
2018-07-11T10:42:37.690Z,5.10
2018-07-11T10:45:07.809Z,5.10
2018-07-11T10:47:38.175Z,6.05
2018-07-11T10:50:08.514Z,7.25
2018-07-11T10:52:38.932Z,6.40
2018-07-11T10:55:09.048Z,7.50
2018-07-11T10:57:40.183Z,5.25
2018-07-11T11:00:09.905Z,4.83
2018-07-11T11:02:39.614Z,5.37
2018-07-11T11:05:08.689Z,5.53
2018-07-11T11:07:39.870Z,6.00
2018-07-11T11:10:09.735Z,22.93
2018-07-11T11:12:40.001Z,8.20
2018-07-11T11:15:10.462Z,15.70
2018-07-11T11:17:40.839Z,8.00
2018-07-11T11:20:10.480Z,5.67
2018-07-11T11:22:39.526Z,7.83
2018-07-11T11:25:09.811Z,6.60
2018-07-11T11:27:40.440Z,9.30
2018-07-11T11:30:11.051Z,11.75
2018-07-11T11:32:41.317Z,6.70
2018-07-11T11:35:10.873Z,5.87
2018-07-11T11:37:41.005Z,8.88
2018-07-11T11:40:11.670Z,6.90
2018-07-11T11:42:42.700Z,6.67
2018-07-11T11:45:13.024Z,8.33
2018-07-11T11:47:42.524Z,5.07
2018-07-11T11:50:13.457Z,7.72
2018-07-11T11:52:42.806Z,6.43
2018-07-11T11:55:12.312Z,7.50
2018-07-11T11:57:43.149Z,6.73
2018-07-11T12:00:13.017Z,11.03
2018-07-11T12:02:42.517Z,6.40
2018-07-11T12:05:12.802Z,9.37
2018-07-11T12:07:43.036Z,11.03
2018-07-11T12:10:12.502Z,7.60
2018-07-11T12:12:41.876Z,5.97
2018-07-11T12:15:12.054Z,6.90
2018-07-11T12:17:42.237Z,7.93
2018-07-11T12:20:11.780Z,7.93
2018-07-11T12:22:41.141Z,6.53
2018-07-11T12:25:11.310Z,6.03
2018-07-11T12:27:42.346Z,5.35
2018-07-11T12:30:12.876Z,8.35
2018-07-11T12:32:41.940Z,5.93
2018-07-11T12:35:13.166Z,14.17
2018-07-11T12:37:42.510Z,5.15
2018-07-11T12:40:13.207Z,5.20
2018-07-11T12:42:42.293Z,6.30
2018-07-11T12:45:11.420Z,6.92
2018-07-11T12:47:46.454Z,6.55
2018-07-11T12:50:17.548Z,4.70
2018-07-11T12:52:48.315Z,5.07
2018-07-11T12:55:17.646Z,5.47
2018-07-11T12:57:47.200Z,5.20
2018-07-11T13:00:17.340Z,5.93
2018-07-11T13:02:47.014Z,5.93
2018-07-11T13:05:17.298Z,7.20
2018-07-11T13:07:46.391Z,4.70
2018-07-11T13:10:16.249Z,5.43
2018-07-11T13:12:45.274Z,7.37
2018-07-11T13:15:16.126Z,5.83
2018-07-11T13:17:46.323Z,4.33
2018-07-11T13:20:15.546Z,6.53
2018-07-11T13:22:45.834Z,6.80
2018-07-11T13:25:15.014Z,5.57
2018-07-11T13:27:44.813Z,6.50
2018-07-11T13:30:14.139Z,9.20
2018-07-11T13:32:43.655Z,18.03
2018-07-11T13:35:13.375Z,8.70
2018-07-11T13:37:42.466Z,5.42
2018-07-11T13:40:12.407Z,11.00
2018-07-11T13:42:42.294Z,6.12
2018-07-11T13:45:11.656Z,7.67
2018-07-11T13:47:41.481Z,8.73
2018-07-11T13:50:10.891Z,6.97
2018-07-11T13:52:40.398Z,9.25
2018-07-11T13:55:10.378Z,6.70
2018-07-11T13:57:39.878Z,5.85
2018-07-11T14:00:09.824Z,10.35
2018-07-11T14:02:39.413Z,6.50
2018-07-11T14:05:08.490Z,7.47
2018-07-11T14:07:38.424Z,8.48
2018-07-11T14:10:08.289Z,8.25
2018-07-11T14:12:37.367Z,5.90
2018-07-11T14:15:06.486Z,7.53
2018-07-11T14:17:35.779Z,9.28
2018-07-11T14:20:06.740Z,8.50
2018-07-11T14:22:36.920Z,6.40
2018-07-11T14:25:06.473Z,10.60
2018-07-11T14:27:46.993Z,7.60
2018-07-11T14:30:16.723Z,9.53
2018-07-11T14:32:52.706Z,7.53
2018-07-11T14:35:22.357Z,10.70
2018-07-11T14:37:52.394Z,7.17
2018-07-11T14:40:22.577Z,5.83
2018-07-11T14:42:51.678Z,6.27
2018-07-11T14:45:20.969Z,9.40
2018-07-11T14:47:56.449Z,8.43
2018-07-11T14:50:26.659Z,9.87
2018-07-11T14:52:57.047Z,6.63
2018-07-11T14:55:26.391Z,7.47
2018-07-11T14:57:56.400Z,7.80
2018-07-11T15:00:26.472Z,10.60
2018-07-11T15:02:56.561Z,5.87
2018-07-11T15:05:26.649Z,8.87
2018-07-11T15:07:57.139Z,7.90
2018-07-11T15:10:27.917Z,7.57
2018-07-11T15:12:57.849Z,7.30
2018-07-11T15:15:27.667Z,8.70
2018-07-11T15:17:57.027Z,8.53
2018-07-11T15:20:27.424Z,7.03
2018-07-11T15:22:57.459Z,7.77
2018-07-11T15:25:27.413Z,7.57
2018-07-11T15:27:57.712Z,7.35
2018-07-11T15:30:27.853Z,8.97
2018-07-11T15:32:57.723Z,8.20
2018-07-11T15:35:26.962Z,9.50
2018-07-11T15:37:57.184Z,6.05
2018-07-11T15:40:27.147Z,9.48
2018-07-11T15:42:57.267Z,8.17
2018-07-11T15:45:27.579Z,8.70
2018-07-11T15:47:57.599Z,11.50
2018-07-11T15:50:27.804Z,10.73
2018-07-11T15:52:58.329Z,8.23
2018-07-11T15:55:28.766Z,5.57
2018-07-11T15:58:03.449Z,5.87
2018-07-11T16:00:38.409Z,6.22
2018-07-11T16:03:08.027Z,6.50
2018-07-11T16:05:46.943Z,6.83
2018-07-11T16:08:18.370Z,10.70
2018-07-11T16:10:50.095Z,6.70
2018-07-11T16:13:19.262Z,7.73
2018-07-11T16:15:48.319Z,7.37
2018-07-11T16:18:18.056Z,8.00
2018-07-11T16:20:47.243Z,6.43
2018-07-11T16:23:16.839Z,7.30
2018-07-11T16:25:46.528Z,8.63
2018-07-11T16:41:10.757Z,8.50
2018-07-11T16:43:39.894Z,8.03
2018-07-11T16:46:10.153Z,6.60
2018-07-11T16:48:39.240Z,7.03
2018-07-11T16:51:09.665Z,7.17
2018-07-11T16:53:39.680Z,6.65
2018-07-11T16:56:10.056Z,12.40
2018-07-11T16:58:48.234Z,8.08
2018-07-11T17:01:17.780Z,7.15
2018-07-11T17:03:46.886Z,8.73
2018-07-11T17:06:16.640Z,7.07
2018-07-11T17:08:52.533Z,6.50
2018-07-11T17:11:24.696Z,5.93
2018-07-11T17:13:56.258Z,5.67
2018-07-11T17:16:32.237Z,6.50
2018-07-11T17:19:11.125Z,6.10
2018-07-11T17:21:45.608Z,9.13
2018-07-11T17:24:18.905Z,6.58
2018-07-11T17:26:49.168Z,7.43
2018-07-11T17:29:25.396Z,5.50
2018-07-11T17:32:02.063Z,6.53
2018-07-11T17:34:31.928Z,7.87
2018-07-11T17:37:02.852Z,8.93
2018-07-11T17:39:52.375Z,5.65
2018-07-11T17:42:29.158Z,6.13
2018-07-11T17:45:08.924Z,5.97
2018-07-11T17:47:56.632Z,4.80
2018-07-11T17:50:28.738Z,5.70
2018-07-11T17:53:10.533Z,5.10
2018-07-11T17:56:14.471Z,5.77
2018-07-11T17:58:59.998Z,7.00
2018-07-11T18:01:36.642Z,9.30
2018-07-11T18:04:13.239Z,4.97
2018-07-11T18:06:55.057Z,5.77
2018-07-11T18:09:24.897Z,4.73
2018-07-11T18:12:00.060Z,4.80
2018-07-11T18:14:34.963Z,9.80
2018-07-11T18:17:22.689Z,9.50
2018-07-11T18:20:10.107Z,8.90
2018-07-11T18:24:53.107Z,6.05
2018-07-11T18:27:36.087Z,8.20
2018-07-11T18:30:17.025Z,5.20
2018-07-11T18:33:01.981Z,5.90
2018-07-11T18:35:45.819Z,5.63
2018-07-11T18:38:31.923Z,6.40
2018-07-11T18:41:13.075Z,5.33
2018-07-11T18:43:54.217Z,5.70
2018-07-11T18:46:42.853Z,5.47
2018-07-11T18:49:24.690Z,6.23
2018-07-11T18:52:13.069Z,5.10
2018-07-11T18:55:55.474Z,8.00
2018-07-11T18:58:38.402Z,5.83
2018-07-11T19:01:29.432Z,4.12
2018-07-11T19:04:17.478Z,4.90
2018-07-11T19:07:59.035Z,26.70
2018-07-11T19:10:40.573Z,5.62
2018-07-11T19:13:48.493Z,4.80
2018-07-11T19:16:26.876Z,5.30
2018-07-11T19:19:03.073Z,6.50
2018-07-11T19:21:41.548Z,4.37
2018-07-11T19:24:17.249Z,4.10
2018-07-11T19:27:02.890Z,3.87
2018-07-11T19:30:47.925Z,4.87
2018-07-11T19:33:28.278Z,3.47
2018-07-11T19:36:37.860Z,3.33
2018-07-11T19:39:13.697Z,3.50
2018-07-11T19:41:54.500Z,4.77
2018-07-11T19:44:34.716Z,3.57
2018-07-11T19:47:16.559Z,4.10
2018-07-11T19:49:58.937Z,5.57
2018-07-11T19:52:35.721Z,3.67
2018-07-11T19:55:18.039Z,3.50
2018-07-11T19:57:48.358Z,4.22
2018-07-11T20:00:17.712Z,4.60
2018-07-11T20:02:46.853Z,4.35
2018-07-11T20:05:16.952Z,3.42
2018-07-11T20:07:46.968Z,4.73
2018-07-11T20:10:16.599Z,3.53
2018-07-11T20:12:45.759Z,3.92
2018-07-11T20:15:15.341Z,3.52
2018-07-11T20:17:45.513Z,4.20
2018-07-11T20:20:15.036Z,4.00
2018-07-11T20:25:28.284Z,4.37
2018-07-11T20:27:57.468Z,6.93
2018-07-11T20:30:27.050Z,4.00
2018-07-11T20:32:57.362Z,5.27
2018-07-11T20:35:26.809Z,6.43
2018-07-11T20:37:57.590Z,3.90
2018-07-11T20:40:26.621Z,4.10
2018-07-11T20:42:55.697Z,6.13
2018-07-11T20:45:25.228Z,4.10
2018-07-11T20:47:55.582Z,6.40
2018-07-11T20:50:25.713Z,7.70
2018-07-11T21:05:49.605Z,4.63
2018-07-11T21:11:35.531Z,4.63
2018-07-11T21:24:19.311Z,6.40
2018-07-11T21:26:52.035Z,5.73
2018-07-11T21:29:22.349Z,5.00
2018-07-11T21:31:52.516Z,4.77
2018-07-11T21:34:23.197Z,5.50
2018-07-11T21:36:53.797Z,4.30
2018-07-11T21:39:24.230Z,5.50
2018-07-11T21:41:55.006Z,6.53
2018-07-11T21:44:24.226Z,4.80
2018-07-11T21:46:55.221Z,5.77
2018-07-11T21:49:25.764Z,5.00
2018-07-11T21:51:55.678Z,6.63
2018-07-11T21:54:26.140Z,7.07
2018-07-11T21:56:56.566Z,6.70
2018-07-11T21:59:27.329Z,6.70
2018-07-11T22:01:57.741Z,6.30
2018-07-11T22:04:28.264Z,5.40
2018-07-11T22:06:58.588Z,5.20
2018-07-11T22:09:29.449Z,5.00
2018-07-11T22:11:59.731Z,4.67
2018-07-11T22:14:29.920Z,7.30
2018-07-11T22:17:10.295Z,4.40
2018-07-11T22:19:38.563Z,4.40
2018-07-11T22:22:07.450Z,6.03
2018-07-11T22:24:35.700Z,4.43
2018-07-11T22:27:04.422Z,4.83
2018-07-11T22:29:33.506Z,5.03
2018-07-11T22:32:01.358Z,5.17
2018-07-11T22:34:30.180Z,4.87
2018-07-11T22:36:58.349Z,6.40
2018-07-11T22:39:27.178Z,4.80
2018-07-11T22:41:55.037Z,6.23
2018-07-11T22:44:23.709Z,9.60
2018-07-11T22:46:52.487Z,6.10
2018-07-11T22:49:20.387Z,5.10
2018-07-11T22:51:48.842Z,7.50
2018-07-11T22:54:16.732Z,4.97
2018-07-11T22:56:45.535Z,5.30
2018-07-11T22:59:13.553Z,4.87
2018-07-11T23:01:41.495Z,6.10
2018-07-11T23:04:09.344Z,6.17
2018-07-11T23:06:37.974Z,6.42
2018-07-11T23:09:06.374Z,6.05
2018-07-11T23:11:35.388Z,5.07
2018-07-11T23:14:03.260Z,5.23
2018-07-11T23:16:31.972Z,5.70
2018-07-11T23:19:01.253Z,4.67
2018-07-11T23:21:29.453Z,4.97
2018-07-11T23:23:58.323Z,6.93
2018-07-11T23:26:26.502Z,4.80
2018-07-11T23:28:54.422Z,4.70
2018-07-11T23:31:22.359Z,5.17
2018-07-11T23:33:50.294Z,5.23
2018-07-11T23:36:18.174Z,5.43
2018-07-11T23:38:46.158Z,5.83
2018-07-11T23:41:13.916Z,6.30
2018-07-11T23:43:42.164Z,11.83
2018-07-11T23:46:10.051Z,6.70
2018-07-11T23:48:38.946Z,5.25
2018-07-11T23:51:07.248Z,4.90
2018-07-11T23:53:36.163Z,5.93
2018-07-11T23:56:04.048Z,4.93
2018-07-11T23:58:31.973Z,10.90
